Time;durP1;ratioP1;P1;durP2;ratioP2;P2;SDS_P1;SDS_P2;PMS_P1;PMS_P2;Temp;Humidity;BMP_temperature;BMP_pressure;BME280_temperature;BME280_humidity;BME280_pressure;Samples;Min_cycle;Max_cycle;Signal;HPM_P1;HPM_P2
2023/04/21 00:00:54;;;;;;;;;;;8.00;99.90;;;;;;5063256;28;19923;-64
2023/04/21 00:03:22;;;;;;;;;;;8.10;99.90;;;;;;5063515;28;19913;-63
2023/04/21 00:05:50;;;;;;;;;;;8.10;99.90;;;;;;5064956;28;20000;-63
2023/04/21 00:08:19;;;;;;;;;;;8.10;99.90;;;;;;5054437;28;19924;-63
2023/04/21 00:10:48;;;;;;;;;;;8.20;99.90;;;;;;5056989;28;19916;-63
2023/04/21 00:13:13;;;;;;;;;;;8.20;99.90;;;;;;5059394;28;20402;-64
2023/04/21 00:15:39;;;;;;;;;;;8.20;99.90;;;;;;5056838;28;20004;-63
2023/04/21 00:18:05;;;;;;;;;;;8.20;99.90;;;;;;5063706;28;19926;-63
2023/04/21 00:20:30;;;;;;;;;;;8.20;99.90;;;;;;5056757;28;20371;-63
2023/04/21 00:22:56;;;;;;;;;;;8.20;99.90;;;;;;5061409;28;20018;-64
2023/04/21 00:25:23;;;;;;;;;;;8.10;99.90;;;;;;5060303;28;19921;-65
2023/04/21 00:27:48;;;;;;;;;;;8.10;99.90;;;;;;5058844;28;19919;-63
2023/04/21 00:30:14;;;;;;;;;;;8.10;99.90;;;;;;5056760;28;19924;-63
2023/04/21 00:32:39;;;;;;;;;;;8.00;99.90;;;;;;5058199;28;19916;-63
2023/04/21 00:35:05;;;;;;;;;;;8.00;99.90;;;;;;5064207;28;19935;-64
2023/04/21 00:37:31;;;;;;;;;;;8.00;99.90;;;;;;5056679;28;19913;-63
2023/04/21 00:39:57;;;;;;;;;;;8.00;99.90;;;;;;5056240;28;20003;-64
2023/04/21 00:42:23;;;;;;;;;;;7.90;99.90;;;;;;5058348;28;19913;-63
2023/04/21 00:44:49;;;;;;;;;;;7.80;99.90;;;;;;5057115;28;19927;-64
2023/04/21 00:47:15;;;;;;;;;;;7.70;99.90;;;;;;5069892;28;19920;-64
2023/04/21 00:49:40;;;;;;;;;;;7.70;99.90;;;;;;5070704;28;19952;-64
2023/04/21 00:52:07;;;;;;;;;;;7.50;99.90;;;;;;5079909;28;20333;-64
2023/04/21 00:54:34;;;;;;;;;;;7.50;99.90;;;;;;5068536;28;19957;-64
2023/04/21 00:57:00;;;;;;;;;;;7.40;99.90;;;;;;5070829;28;19981;-64
2023/04/21 00:59:26;;;;;;;;;;;7.30;99.90;;;;;;5056258;28;19921;-64
2023/04/21 01:01:52;;;;;;;;;;;7.10;99.90;;;;;;5056634;28;19913;-64
2023/04/21 01:04:17;;;;;;;;;;;7.10;99.90;;;;;;5061098;28;19936;-64
2023/04/21 01:06:43;;;;;;;;;;;7.00;99.90;;;;;;5055602;28;20249;-64
2023/04/21 01:09:11;;;;;;;;;;;7.00;99.90;;;;;;5051186;28;19975;-65
2023/04/21 01:11:37;;;;;;;;;;;6.90;99.90;;;;;;5059277;28;19912;-64
2023/04/21 01:14:03;;;;;;;;;;;6.90;99.90;;;;;;5058552;28;19912;-64
2023/04/21 01:16:31;;;;;;;;;;;6.80;99.90;;;;;;5059914;28;21597;-64
2023/04/21 01:18:58;;;;;;;;;;;6.80;99.90;;;;;;5060350;28;19912;-64
2023/04/21 01:21:23;;;;;;;;;;;6.80;99.90;;;;;;5051792;28;19958;-63
2023/04/21 01:23:49;;;;;;;;;;;6.70;99.90;;;;;;5055587;28;19951;-64
2023/04/21 01:26:18;;;;;;;;;;;6.60;99.90;;;;;;5060327;28;19916;-63
2023/04/21 01:28:46;;;;;;;;;;;6.50;99.90;;;;;;5057960;28;20003;-63
2023/04/21 01:31:12;;;;;;;;;;;6.50;99.90;;;;;;5057686;28;20407;-62
2023/04/21 01:33:37;;;;;;;;;;;6.50;99.90;;;;;;5062594;28;19928;-64
2023/04/21 01:36:03;;;;;;;;;;;6.40;99.90;;;;;;5055742;28;20004;-63
2023/04/21 01:38:29;;;;;;;;;;;6.40;99.90;;;;;;5056715;28;19912;-64
2023/04/21 01:40:54;;;;;;;;;;;6.40;99.90;;;;;;5056379;28;19916;-64
2023/04/21 01:43:21;;;;;;;;;;;6.40;99.90;;;;;;5054208;28;19920;-63
2023/04/21 01:45:47;;;;;;;;;;;6.40;99.90;;;;;;5057330;28;19916;-63
2023/04/21 01:48:12;;;;;;;;;;;6.40;99.90;;;;;;5059039;28;19919;-63
2023/04/21 01:50:38;;;;;;;;;;;6.40;99.90;;;;;;5060150;28;19921;-63
2023/04/21 01:53:04;;;;;;;;;;;6.40;99.90;;;;;;5053957;28;19913;-63
2023/04/21 01:55:30;;;;;;;;;;;6.50;99.90;;;;;;5052409;28;19966;-63
2023/04/21 01:57:58;;;;;;;;;;;6.50;99.90;;;;;;5056517;28;19920;-64
2023/04/21 02:00:24;;;;;;;;;;;6.40;99.90;;;;;;5057132;28;19912;-62
2023/04/21 02:02:50;;;;;;;;;;;6.30;99.90;;;;;;5056366;28;19917;-61
2023/04/21 02:05:15;;;;;;;;;;;6.30;99.90;;;;;;5064004;28;19965;-64
2023/04/21 02:07:41;;;;;;;;;;;6.30;99.90;;;;;;5054973;28;19919;-64
2023/04/21 02:10:07;;;;;;;;;;;6.30;99.90;;;;;;5057801;28;19967;-64
2023/04/21 02:12:32;;;;;;;;;;;6.40;99.90;;;;;;5056100;28;19919;-64
2023/04/21 02:14:58;;;;;;;;;;;6.40;99.90;;;;;;5058725;28;20451;-63
2023/04/21 02:17:24;;;;;;;;;;;6.40;99.90;;;;;;5060257;28;19913;-63
2023/04/21 02:19:50;;;;;;;;;;;6.40;99.90;;;;;;5057795;28;19912;-63
2023/04/21 02:22:15;;;;;;;;;;;6.40;99.90;;;;;;5059168;28;19912;-63
2023/04/21 02:24:41;;;;;;;;;;;6.30;99.90;;;;;;5050771;28;19913;-64
2023/04/21 02:27:07;;;;;;;;;;;6.20;99.90;;;;;;5052336;28;20287;-63
2023/04/21 02:29:32;;;;;;;;;;;6.20;99.90;;;;;;5058625;28;19921;-63
2023/04/21 02:31:58;;;;;;;;;;;6.30;99.90;;;;;;5064583;28;19970;-63
2023/04/21 02:34:23;;;;;;;;;;;6.40;99.90;;;;;;5059030;28;19953;-63
2023/04/21 02:36:49;;;;;;;;;;;6.50;99.90;;;;;;5059503;28;19923;-64
2023/04/21 02:39:15;;;;;;;;;;;6.50;99.90;;;;;;5059913;28;19916;-62
2023/04/21 02:41:40;;;;;;;;;;;6.50;99.90;;;;;;5061411;28;21069;-65
2023/04/21 02:44:06;;;;;;;;;;;6.50;99.90;;;;;;5071919;28;19921;-62
2023/04/21 02:46:32;;;;;;;;;;;6.50;99.90;;;;;;5066559;28;19913;-64
2023/04/21 02:48:57;;;;;;;;;;;6.40;99.90;;;;;;5079112;28;19917;-63
2023/04/21 02:51:23;;;;;;;;;;;6.50;99.90;;;;;;5080264;28;19936;-64
2023/04/21 02:53:49;;;;;;;;;;;6.50;99.90;;;;;;5079323;28;20273;-63
2023/04/21 02:56:14;;;;;;;;;;;6.50;99.90;;;;;;5070309;28;19916;-62
2023/04/21 02:58:40;;;;;;;;;;;6.50;99.90;;;;;;5075238;28;20329;-64
2023/04/21 03:01:06;;;;;;;;;;;6.50;99.90;;;;;;5073619;28;19920;-63
2023/04/21 03:03:31;;;;;;;;;;;6.50;99.90;;;;;;5069460;28;20011;-63
2023/04/21 03:05:58;;;;;;;;;;;6.50;99.90;;;;;;5079226;28;20412;-64
2023/04/21 03:08:24;;;;;;;;;;;6.50;99.90;;;;;;5085526;28;19924;-63
2023/04/21 03:10:49;;;;;;;;;;;6.30;99.90;;;;;;5064752;28;20004;-62
2023/04/21 03:13:15;;;;;;;;;;;6.30;99.90;;;;;;5066945;28;19917;-63
2023/04/21 03:15:41;;;;;;;;;;;6.20;99.90;;;;;;5063860;28;19913;-64
2023/04/21 03:18:07;;;;;;;;;;;6.30;99.90;;;;;;5070071;28;19931;-63
2023/04/21 03:20:33;;;;;;;;;;;6.30;99.90;;;;;;5066686;28;19958;-64
2023/04/21 03:22:58;;;;;;;;;;;6.40;99.90;;;;;;5078556;28;19912;-64
2023/04/21 03:25:26;;;;;;;;;;;6.50;99.90;;;;;;5066999;28;20366;-64
2023/04/21 03:27:55;;;;;;;;;;;6.50;99.90;;;;;;5060123;28;20011;-63
2023/04/21 03:30:21;;;;;;;;;;;6.40;99.90;;;;;;5060668;28;19924;-64
2023/04/21 03:32:47;;;;;;;;;;;6.40;99.90;;;;;;5067032;28;19920;-64
2023/04/21 03:35:12;;;;;;;;;;;6.40;99.90;;;;;;5077406;28;19912;-64
2023/04/21 03:37:38;;;;;;;;;;;6.30;99.90;;;;;;5061254;28;19966;-64
2023/04/21 03:40:07;;;;;;;;;;;6.20;99.90;;;;;;5066309;28;19912;-63
2023/04/21 03:42:44;;;;;;;;;;;6.30;99.90;;;;;;5060964;28;19962;-63
2023/04/21 03:45:10;;;;;;;;;;;6.30;99.90;;;;;;5049570;28;19925;-60
2023/04/21 03:47:36;;;;;;;;;;;6.40;99.90;;;;;;5049558;28;19913;-60
2023/04/21 03:50:04;;;;;;;;;;;6.50;99.90;;;;;;5047523;28;19921;-59
2023/04/21 03:52:30;;;;;;;;;;;6.50;99.90;;;;;;5047070;28;19912;-60
2023/04/21 03:54:56;;;;;;;;;;;6.50;99.90;;;;;;5046594;28;19917;-60
2023/04/21 03:57:22;;;;;;;;;;;6.50;99.90;;;;;;5048639;28;19973;-59
2023/04/21 03:59:47;;;;;;;;;;;6.50;99.90;;;;;;5047482;28;20010;-59
2023/04/21 04:02:13;;;;;;;;;;;6.50;99.90;;;;;;5050981;28;20403;-59
2023/04/21 04:04:38;;;;;;;;;;;6.50;99.90;;;;;;5049182;28;19913;-59
2023/04/21 04:07:06;;;;;;;;;;;6.40;99.90;;;;;;5048863;28;19994;-59
2023/04/21 04:09:32;;;;;;;;;;;6.30;99.90;;;;;;5039726;28;19921;-60
2023/04/21 04:11:57;;;;;;;;;;;6.20;99.90;;;;;;5040601;28;20296;-58
2023/04/21 04:14:23;;;;;;;;;;;6.20;99.90;;;;;;5047739;28;19955;-60
2023/04/21 04:16:48;;;;;;;;;;;6.30;99.90;;;;;;5045305;28;20370;-60
2023/04/21 04:19:14;;;;;;;;;;;6.30;99.90;;;;;;5051174;28;19959;-60
2023/04/21 04:21:40;;;;;;;;;;;6.30;99.90;;;;;;5049631;28;20384;-60
2023/04/21 04:24:07;;;;;;;;;;;6.30;99.90;;;;;;5051008;28;19912;-59
2023/04/21 04:26:37;;;;;;;;;;;6.30;99.90;;;;;;5052485;28;20008;-60
2023/04/21 04:29:04;;;;;;;;;;;6.30;99.90;;;;;;5057236;28;20354;-59
2023/04/21 04:31:29;;;;;;;;;;;6.20;99.90;;;;;;5058829;28;19960;-59
2023/04/21 04:33:55;;;;;;;;;;;6.20;99.90;;;;;;5053835;28;19959;-59
2023/04/21 04:36:21;;;;;;;;;;;6.10;99.90;;;;;;5060052;28;19913;-60
2023/04/21 04:38:47;;;;;;;;;;;6.10;99.90;;;;;;5058551;28;20015;-59
2023/04/21 04:41:14;;;;;;;;;;;6.10;99.90;;;;;;5057309;28;19913;-60
2023/04/21 04:43:40;;;;;;;;;;;6.40;99.90;;;;;;5048689;28;20058;-59
2023/04/21 04:46:07;;;;;;;;;;;6.50;99.90;;;;;;5049715;28;19954;-60
2023/04/21 04:48:33;;;;;;;;;;;6.50;99.90;;;;;;5047965;28;19916;-60
2023/04/21 04:50:59;;;;;;;;;;;6.40;99.90;;;;;;5047110;28;19917;-59
2023/04/21 04:53:26;;;;;;;;;;;6.40;99.90;;;;;;5048352;28;20054;-59
2023/04/21 04:55:52;;;;;;;;;;;6.30;99.90;;;;;;5048905;28;19912;-59
2023/04/21 04:58:18;;;;;;;;;;;6.50;99.90;;;;;;5051399;28;19913;-59
2023/04/21 05:00:44;;;;;;;;;;;6.60;99.90;;;;;;5058421;28;20368;-59
2023/04/21 05:03:09;;;;;;;;;;;6.70;99.90;;;;;;5054257;28;19966;-59
2023/04/21 05:05:35;;;;;;;;;;;6.80;99.90;;;;;;5057427;28;19934;-59
2023/04/21 05:08:00;;;;;;;;;;;6.80;99.90;;;;;;5055093;28;19951;-59
2023/04/21 05:10:26;;;;;;;;;;;6.90;99.90;;;;;;5055161;28;19974;-59
2023/04/21 05:12:52;;;;;;;;;;;7.00;99.90;;;;;;5052158;28;20364;-59
2023/04/21 05:15:18;;;;;;;;;;;7.20;99.90;;;;;;5059408;28;19921;-59
2023/04/21 05:17:44;;;;;;;;;;;7.30;99.90;;;;;;5055345;28;19999;-59
2023/04/21 05:20:09;;;;;;;;;;;7.40;99.90;;;;;;5053292;28;19920;-60
2023/04/21 05:22:39;;;;;;;;;;;7.60;99.90;;;;;;5058548;28;19913;-60
2023/04/21 05:25:05;;;;;;;;;;;7.70;99.90;;;;;;5057539;28;19913;-60
2023/04/21 05:27:31;;;;;;;;;;;7.70;99.90;;;;;;5054705;28;19920;-61
2023/04/21 05:29:56;;;;;;;;;;;7.80;99.90;;;;;;5060997;28;19924;-59
2023/04/21 05:32:22;;;;;;;;;;;7.80;99.90;;;;;;5054603;28;20973;-59
2023/04/21 05:34:47;;;;;;;;;;;7.80;99.90;;;;;;5059835;28;19912;-59
2023/04/21 05:37:13;;;;;;;;;;;7.90;99.90;;;;;;5053814;28;19923;-59
2023/04/21 05:39:38;;;;;;;;;;;8.00;99.90;;;;;;5050259;28;19921;-59
2023/04/21 05:42:05;;;;;;;;;;;8.00;99.90;;;;;;5057497;28;19916;-59
2023/04/21 05:44:31;;;;;;;;;;;8.00;99.90;;;;;;5056166;28;20075;-59
2023/04/21 05:46:56;;;;;;;;;;;8.10;99.90;;;;;;5058618;28;20008;-59
2023/04/21 05:49:22;;;;;;;;;;;8.20;99.90;;;;;;5053728;28;19931;-59
2023/04/21 05:51:47;;;;;;;;;;;8.20;99.90;;;;;;5053071;28;20007;-59
2023/04/21 05:54:13;;;;;;;;;;;8.40;99.90;;;;;;5054829;28;19923;-58
2023/04/21 05:56:39;;;;;;;;;;;8.40;99.90;;;;;;5045748;28;20463;-59
2023/04/21 05:59:05;;;;;;;;;;;8.40;99.90;;;;;;5047147;28;19913;-59
2023/04/21 06:01:31;;;;;;;;;;;8.50;99.90;;;;;;5075026;28;20281;-59
2023/04/21 06:03:57;;;;;;;;;;;8.50;99.90;;;;;;5046768;28;19920;-60
2023/04/21 06:06:24;;;;;;;;;;;8.60;99.90;;;;;;5037999;28;19912;-60
2023/04/21 06:08:50;;;;;;;;;;;8.70;99.90;;;;;;5048576;28;20365;-61
2023/04/21 06:11:15;;;;;;;;;;;8.80;99.90;;;;;;5048134;28;20013;-60
2023/04/21 06:13:41;;;;;;;;;;;8.90;99.90;;;;;;5045994;28;19913;-60
2023/04/21 06:16:07;;;;;;;;;;;9.00;99.90;;;;;;5050245;28;20376;-60
2023/04/21 06:18:32;;;;;;;;;;;9.10;99.90;;;;;;5045296;28;19945;-59
2023/04/21 06:20:58;;;;;;;;;;;9.10;99.90;;;;;;5050863;28;19999;-60
2023/04/21 06:23:23;;;;;;;;;;;9.30;99.90;;;;;;5049125;28;19917;-60
2023/04/21 06:26:18;;;;;;;;;;;9.40;99.90;;;;;;5052523;28;19913;-59
2023/04/21 06:28:44;;;;;;;;;;;9.40;99.90;;;;;;5036859;28;19928;-59
2023/04/21 06:31:14;;;;;;;;;;;9.50;99.90;;;;;;5052996;28;19913;-60
2023/04/21 06:33:39;;;;;;;;;;;9.60;99.90;;;;;;5050355;28;19936;-59
2023/04/21 06:36:05;;;;;;;;;;;9.70;99.90;;;;;;5052781;28;19913;-59
2023/04/21 06:38:31;;;;;;;;;;;9.70;99.90;;;;;;5048460;28;19913;-59
2023/04/21 06:40:57;;;;;;;;;;;9.80;99.90;;;;;;5051828;28;19963;-60
2023/04/21 06:43:22;;;;;;;;;;;9.90;99.90;;;;;;5049724;28;19913;-60
2023/04/21 06:45:48;;;;;;;;;;;9.80;99.90;;;;;;5051245;28;19971;-60
2023/04/21 06:48:13;;;;;;;;;;;9.80;99.90;;;;;;5051420;28;19962;-60
2023/04/21 06:50:39;;;;;;;;;;;9.80;99.90;;;;;;5049952;28;19964;-59
2023/04/21 06:53:05;;;;;;;;;;;9.90;99.90;;;;;;5052329;28;19912;-60
2023/04/21 06:55:31;;;;;;;;;;;9.80;99.90;;;;;;5050468;28;20438;-58
2023/04/21 06:57:56;;;;;;;;;;;9.70;99.90;;;;;;5051904;28;19951;-60
2023/04/21 07:00:22;;;;;;;;;;;9.70;99.90;;;;;;5050618;28;20353;-60
2023/04/21 07:02:47;;;;;;;;;;;9.70;99.90;;;;;;5051321;28;19913;-60
2023/04/21 07:05:13;;;;;;;;;;;9.70;99.90;;;;;;5059432;22;19932;-64
2023/04/21 07:07:39;;;;;;;;;;;9.60;99.90;;;;;;5052244;28;19921;-66
2023/04/21 07:10:05;;;;;;;;;;;9.60;99.90;;;;;;5052101;28;19920;-64
2023/04/21 07:12:30;;;;;;;;;;;9.60;99.90;;;;;;5050188;28;19916;-64
2023/04/21 07:14:56;;;;;;;;;;;9.50;99.90;;;;;;5041651;28;19916;-62
2023/04/21 07:17:21;;;;;;;;;;;9.60;99.90;;;;;;5044863;28;19919;-64
2023/04/21 07:19:47;;;;;;;;;;;9.50;99.90;;;;;;5046799;28;20343;-63
2023/04/21 07:22:12;;;;;;;;;;;9.50;99.90;;;;;;5051650;28;19982;-63
2023/04/21 07:24:38;;;;;;;;;;;9.60;99.90;;;;;;5050015;28;20322;-63
2023/04/21 07:27:04;;;;;;;;;;;9.60;99.90;;;;;;5047938;28;20327;-62
2023/04/21 07:29:29;;;;;;;;;;;9.70;99.90;;;;;;5046713;28;19921;-62
2023/04/21 07:31:57;;;;;;;;;;;9.60;99.90;;;;;;5050395;28;20014;-63
2023/04/21 07:34:23;;;;;;;;;;;9.70;99.90;;;;;;5048486;28;20000;-64
2023/04/21 07:36:49;;;;;;;;;;;9.70;99.90;;;;;;5051217;28;20103;-63
2023/04/21 07:39:14;;;;;;;;;;;9.60;99.90;;;;;;5051145;28;19916;-63
2023/04/21 07:41:40;;;;;;;;;;;9.60;99.90;;;;;;5048195;28;19920;-63
2023/04/21 07:44:06;;;;;;;;;;;9.50;99.90;;;;;;5051097;28;20324;-64
2023/04/21 07:46:31;;;;;;;;;;;9.60;99.90;;;;;;5048393;28;19919;-65
2023/04/21 07:48:58;;;;;;;;;;;9.60;99.90;;;;;;5048864;28;19974;-63
2023/04/21 07:51:24;;;;;;;;;;;9.60;99.90;;;;;;5047777;28;19913;-64
2023/04/21 07:53:49;;;;;;;;;;;9.60;99.90;;;;;;5048496;28;20007;-64
2023/04/21 07:56:15;;;;;;;;;;;9.50;99.90;;;;;;5050853;28;19913;-62
2023/04/21 07:58:41;;;;;;;;;;;9.50;99.90;;;;;;5041993;28;19917;-63
2023/04/21 08:01:07;;;;;;;;;;;9.60;99.90;;;;;;5047861;28;19913;-63
2023/04/21 08:03:32;;;;;;;;;;;9.60;99.90;;;;;;5045042;28;20052;-65
2023/04/21 08:05:58;;;;;;;;;;;9.50;99.90;;;;;;5049243;28;20360;-64
2023/04/21 08:08:23;;;;;;;;;;;9.60;99.90;;;;;;5043708;28;19972;-63
2023/04/21 08:10:49;;;;;;;;;;;9.60;99.90;;;;;;5043686;28;19913;-63
2023/04/21 08:13:15;;;;;;;;;;;9.60;99.90;;;;;;5049542;28;19919;-63
2023/04/21 08:15:40;;;;;;;;;;;9.50;99.90;;;;;;5038265;28;19913;-63
2023/04/21 08:18:07;;;;;;;;;;;9.40;99.90;;;;;;5042084;28;19917;-64
2023/04/21 08:20:32;;;;;;;;;;;9.30;99.90;;;;;;5042663;28;20020;-63
2023/04/21 08:22:58;;;;;;;;;;;9.20;99.90;;;;;;5044997;28;19995;-63
2023/04/21 08:25:24;;;;;;;;;;;9.10;99.90;;;;;;5024188;28;20011;-63
2023/04/21 08:27:49;;;;;;;;;;;9.10;99.90;;;;;;5031237;28;19913;-65
2023/04/21 08:30:15;;;;;;;;;;;9.10;99.90;;;;;;5032429;28;19921;-65
2023/04/21 08:32:41;;;;;;;;;;;9.00;99.90;;;;;;5044409;28;19982;-65
2023/04/21 08:35:07;;;;;;;;;;;9.00;99.90;;;;;;5040072;28;19920;-65
2023/04/21 08:37:34;;;;;;;;;;;9.00;99.90;;;;;;5002243;28;19920;-65
2023/04/21 08:40:00;;;;;;;;;;;9.00;99.90;;;;;;5031466;28;19960;-66
2023/04/21 08:42:25;;;;;;;;;;;9.00;99.90;;;;;;5033920;28;19930;-65
2023/04/21 08:44:51;;;;;;;;;;;9.00;99.90;;;;;;5038568;28;19913;-65
2023/04/21 08:47:17;;;;;;;;;;;8.90;99.90;;;;;;5037904;28;19971;-65
2023/04/21 08:49:45;;;;;;;;;;;8.90;99.90;;;;;;5034813;28;20004;-65
2023/04/21 08:52:12;;;;;;;;;;;8.80;99.90;;;;;;5039279;28;19921;-65
2023/04/21 08:54:38;;;;;;;;;;;8.80;99.90;;;;;;5033646;28;19917;-65
2023/04/21 08:57:03;;;;;;;;;;;8.70;99.90;;;;;;5037640;28;19922;-64
2023/04/21 08:59:29;;;;;;;;;;;8.70;99.90;;;;;;5036797;28;19920;-65
2023/04/21 09:02:14;;;;;;;;;;;8.70;99.90;;;;;;5040339;28;19913;-66
2023/04/21 09:04:41;;;;;;;;;;;8.70;99.90;;;;;;5028483;28;20333;-66
2023/04/21 09:07:07;;;;;;;;;;;8.60;99.90;;;;;;5038357;28;19943;-66
2023/04/21 09:09:52;;;;;;;;;;;8.60;99.90;;;;;;5026120;28;20337;-67
2023/04/21 09:12:17;;;;;;;;;;;8.60;99.90;;;;;;5027767;28;19914;-68
2023/04/21 09:14:43;;;;;;;;;;;8.60;99.90;;;;;;5024023;28;19913;-69
2023/04/21 09:17:09;;;;;;;;;;;8.80;99.90;;;;;;5029346;28;19923;-68
2023/04/21 09:19:35;;;;;;;;;;;8.90;99.90;;;;;;5004146;28;19921;-67
2023/04/21 09:22:00;;;;;;;;;;;9.00;99.90;;;;;;5035208;28;19920;-65
2023/04/21 09:24:26;;;;;;;;;;;9.20;99.90;;;;;;5032485;28;19917;-68
2023/04/21 09:26:52;;;;;;;;;;;9.40;99.90;;;;;;5036208;28;20292;-69
2023/04/21 09:29:21;;;;;;;;;;;9.50;99.90;;;;;;5035590;28;19921;-67
2023/04/21 09:31:46;;;;;;;;;;;9.70;99.90;;;;;;5037770;28;19917;-67
2023/04/21 09:34:17;;;;;;;;;;;9.80;99.90;;;;;;5039891;28;19999;-66
2023/04/21 09:36:44;;;;;;;;;;;9.80;99.90;;;;;;5030524;28;20331;-68
2023/04/21 09:39:10;;;;;;;;;;;9.80;99.90;;;;;;5036202;28;20385;-68
2023/04/21 09:41:35;;;;;;;;;;;9.60;99.90;;;;;;5030277;28;19920;-67
2023/04/21 09:44:03;;;;;;;;;;;9.60;99.90;;;;;;5039299;28;19917;-68
2023/04/21 09:46:31;;;;;;;;;;;9.60;99.90;;;;;;5035934;28;20288;-67
2023/04/21 09:48:59;;;;;;;;;;;9.70;99.90;;;;;;5038346;28;19979;-67
2023/04/21 09:51:25;;;;;;;;;;;9.70;99.90;;;;;;5042129;28;19967;-67
2023/04/21 09:53:52;;;;;;;;;;;9.80;99.90;;;;;;5042908;28;19913;-66
2023/04/21 09:56:20;;;;;;;;;;;9.70;99.90;;;;;;5036971;28;20056;-59
2023/04/21 09:58:46;;;;;;;;;;;9.80;99.90;;;;;;5041022;28;19956;-66
2023/04/21 10:01:13;;;;;;;;;;;9.90;99.90;;;;;;5041269;28;19940;-65
2023/04/21 10:03:42;;;;;;;;;;;10.10;99.90;;;;;;5034692;28;20015;-65
2023/04/21 10:06:07;;;;;;;;;;;10.20;99.90;;;;;;5035959;28;20030;-67
2023/04/21 10:08:33;;;;;;;;;;;10.30;99.90;;;;;;5041607;28;19917;-65
2023/04/21 10:10:59;;;;;;;;;;;10.30;99.90;;;;;;5037510;28;19913;-67
2023/04/21 10:13:25;;;;;;;;;;;10.40;99.90;;;;;;5035891;28;20007;-64
2023/04/21 10:16:00;;;;;;;;;;;10.50;99.90;;;;;;5039658;28;19928;-65
2023/04/21 10:18:27;;;;;;;;;;;10.50;99.90;;;;;;5034833;28;20474;-66
2023/04/21 10:21:09;;;;;;;;;;;10.60;99.90;;;;;;5030556;28;19975;-65
2023/04/21 10:23:36;;;;;;;;;;;10.60;99.90;;;;;;5038560;28;19936;-64
2023/04/21 10:26:01;;;;;;;;;;;10.70;99.90;;;;;;5041806;28;19917;-64
2023/04/21 10:28:40;;;;;;;;;;;11.00;99.90;;;;;;5033411;28;19920;-66
2023/04/21 10:31:21;;;;;;;;;;;11.10;99.90;;;;;;5032362;28;20202;-66
2023/04/21 10:34:08;;;;;;;;;;;11.20;99.90;;;;;;5041101;28;19913;-65
2023/04/21 10:36:42;;;;;;;;;;;11.20;99.90;;;;;;5033405;28;20050;-66
2023/04/21 10:39:11;;;;;;;;;;;10.80;99.90;;;;;;5032405;28;19916;-66
2023/04/21 10:41:36;;;;;;;;;;;10.80;99.90;;;;;;5034110;28;19924;-66
2023/04/21 10:44:08;;;;;;;;;;;10.70;99.90;;;;;;5035859;28;19913;-66
2023/04/21 10:46:38;;;;;;;;;;;10.70;99.90;;;;;;5034716;28;19914;-64
2023/04/21 10:49:07;;;;;;;;;;;10.90;99.90;;;;;;5039249;28;19921;-65
2023/04/21 10:51:53;;;;;;;;;;;10.80;99.90;;;;;;5037156;28;19935;-66
2023/04/21 10:54:20;;;;;;;;;;;11.20;99.90;;;;;;5037521;28;19935;-65
2023/04/21 10:56:46;;;;;;;;;;;11.40;99.90;;;;;;5041101;28;19963;-68
2023/04/21 10:59:13;;;;;;;;;;;11.70;99.90;;;;;;5041476;28;19927;-64
2023/04/21 11:01:40;;;;;;;;;;;12.10;99.90;;;;;;5034149;28;20343;-65
2023/04/21 11:04:06;;;;;;;;;;;12.10;99.90;;;;;;5032381;28;19913;-65
2023/04/21 11:06:31;;;;;;;;;;;12.10;99.90;;;;;;5039314;28;19931;-64
2023/04/21 11:08:57;;;;;;;;;;;12.10;99.90;;;;;;5032595;28;19972;-64
2023/04/21 11:11:23;;;;;;;;;;;12.00;99.90;;;;;;5030199;28;20000;-63
2023/04/21 11:13:51;;;;;;;;;;;12.20;99.90;;;;;;5037306;28;20003;-66
2023/04/21 11:16:16;;;;;;;;;;;12.30;99.90;;;;;;5040759;28;20210;-66
2023/04/21 11:18:43;;;;;;;;;;;12.30;99.90;;;;;;5035696;28;20344;-65
2023/04/21 11:21:20;;;;;;;;;;;12.30;99.90;;;;;;5034043;28;20448;-64
2023/04/21 11:23:52;;;;;;;;;;;12.70;99.90;;;;;;5042121;28;19924;-65
2023/04/21 11:26:19;;;;;;;;;;;12.70;99.90;;;;;;5035652;28;19959;-68
2023/04/21 11:28:48;;;;;;;;;;;12.50;99.90;;;;;;5040611;28;20052;-67
2023/04/21 11:31:14;;;;;;;;;;;12.50;99.90;;;;;;5034531;28;19917;-65
2023/04/21 11:33:40;;;;;;;;;;;12.50;99.90;;;;;;5042772;28;20447;-65
2023/04/21 11:36:06;;;;;;;;;;;12.90;99.90;;;;;;5033014;28;19993;-65
2023/04/21 11:38:39;;;;;;;;;;;13.00;99.90;;;;;;5035383;28;20387;-66
2023/04/21 11:41:04;;;;;;;;;;;12.90;99.90;;;;;;5031924;28;20365;-65
2023/04/21 11:43:30;;;;;;;;;;;12.70;99.90;;;;;;5041617;28;19964;-65
2023/04/21 11:46:10;;;;;;;;;;;12.60;99.90;;;;;;5037795;28;19955;-66
2023/04/21 11:48:35;;;;;;;;;;;12.80;99.90;;;;;;5037315;28;19913;-64
2023/04/21 11:51:01;;;;;;;;;;;12.80;99.90;;;;;;5041435;28;20161;-65
2023/04/21 11:53:28;;;;;;;;;;;13.00;99.90;;;;;;5040438;28;20039;-65
2023/04/21 11:55:55;;;;;;;;;;;13.40;99.90;;;;;;5036594;28;19920;-66
2023/04/21 11:58:21;;;;;;;;;;;13.60;99.90;;;;;;5033704;28;19936;-64
2023/04/21 12:00:46;;;;;;;;;;;13.40;99.90;;;;;;5039924;28;20360;-65
2023/04/21 12:03:12;;;;;;;;;;;13.20;99.90;;;;;;5032868;28;19917;-67
2023/04/21 12:05:38;;;;;;;;;;;13.20;99.90;;;;;;5035381;28;20392;-65
2023/04/21 12:08:06;;;;;;;;;;;13.00;99.90;;;;;;5035671;28;19956;-66
2023/04/21 12:10:32;;;;;;;;;;;13.00;99.90;;;;;;5030381;28;20355;-65
2023/04/21 12:12:58;;;;;;;;;;;13.10;99.90;;;;;;5033139;28;19913;-64
2023/04/21 12:15:23;;;;;;;;;;;12.90;99.90;;;;;;5030659;28;19917;-67
2023/04/21 12:17:50;;;;;;;;;;;12.80;99.90;;;;;;5038484;28;20379;-64
2023/04/21 12:20:20;;;;;;;;;;;12.80;99.90;;;;;;5037349;28;19913;-66
2023/04/21 12:22:46;;;;;;;;;;;13.60;99.90;;;;;;5035889;28;19925;-64
2023/04/21 12:25:12;;;;;;;;;;;14.50;99.90;;;;;;5033502;28;20315;-65
2023/04/21 12:27:50;;;;;;;;;;;14.80;99.90;;;;;;5033585;28;19925;-65
2023/04/21 12:30:16;;;;;;;;;;;15.50;99.90;;;;;;5036998;28;20339;-65
2023/04/21 12:32:42;;;;;;;;;;;15.10;99.90;;;;;;5039088;28;19913;-65
2023/04/21 12:35:08;;;;;;;;;;;14.40;99.90;;;;;;5034872;28;20362;-65
2023/04/21 12:37:33;;;;;;;;;;;14.20;99.90;;;;;;5032232;28;20454;-65
2023/04/21 12:39:59;;;;;;;;;;;14.60;99.90;;;;;;5030627;28;19927;-65
2023/04/21 12:42:24;;;;;;;;;;;15.10;99.90;;;;;;5030466;28;19913;-63
2023/04/21 12:44:50;;;;;;;;;;;15.70;99.90;;;;;;5035930;28;19928;-66
2023/04/21 12:47:16;;;;;;;;;;;16.20;99.90;;;;;;5032236;28;19920;-65
2023/04/21 12:49:41;;;;;;;;;;;16.30;99.90;;;;;;5028031;28;20310;-65
2023/04/21 12:52:07;;;;;;;;;;;16.00;99.90;;;;;;5038808;28;19932;-65
2023/04/21 12:54:33;;;;;;;;;;;16.50;99.90;;;;;;5034313;28;19913;-67
2023/04/21 12:56:58;;;;;;;;;;;17.40;99.90;;;;;;5032045;28;19916;-65
2023/04/21 12:59:24;;;;;;;;;;;17.60;99.90;;;;;;5032139;28;19912;-66
2023/04/21 13:01:50;;;;;;;;;;;17.50;99.90;;;;;;5037022;28;19927;-65
2023/04/21 13:04:15;;;;;;;;;;;17.70;99.90;;;;;;5033323;28;20368;-67
2023/04/21 13:06:41;;;;;;;;;;;17.90;96.90;;;;;;5036645;28;19929;-65
2023/04/21 13:09:07;;;;;;;;;;;17.80;95.60;;;;;;5035868;28;19935;-65
2023/04/21 13:11:32;;;;;;;;;;;17.70;98.20;;;;;;5033897;28;20007;-66
2023/04/21 13:13:58;;;;;;;;;;;17.80;99.90;;;;;;5021028;28;20360;-66
2023/04/21 13:16:24;;;;;;;;;;;18.10;98.70;;;;;;5036669;28;19919;-65
2023/04/21 13:18:49;;;;;;;;;;;18.40;96.50;;;;;;5041662;28;19912;-65
2023/04/21 13:21:15;;;;;;;;;;;18.00;95.40;;;;;;5038207;28;19917;-66
2023/04/21 13:23:40;;;;;;;;;;;17.20;97.80;;;;;;5034267;28;20287;-66
2023/04/21 13:26:06;;;;;;;;;;;16.60;99.90;;;;;;5035561;28;20335;-66
2023/04/21 13:28:32;;;;;;;;;;;16.20;99.90;;;;;;5034321;28;20015;-66
2023/04/21 13:31:01;;;;;;;;;;;16.00;99.90;;;;;;5048822;28;19917;-66
2023/04/21 13:33:34;;;;;;;;;;;16.20;99.90;;;;;;5047480;28;19913;-67
2023/04/21 13:36:00;;;;;;;;;;;16.20;99.90;;;;;;5044115;28;20323;-64
2023/04/21 13:38:26;;;;;;;;;;;16.60;99.90;;;;;;5047440;28;19912;-66
2023/04/21 13:40:51;;;;;;;;;;;17.00;99.90;;;;;;5046099;28;19974;-65
2023/04/21 13:43:17;;;;;;;;;;;17.20;99.90;;;;;;5045578;28;19913;-66
2023/04/21 13:45:43;;;;;;;;;;;16.90;99.90;;;;;;5047447;28;19913;-65
2023/04/21 13:48:10;;;;;;;;;;;16.50;99.90;;;;;;5048388;28;20270;-65
2023/04/21 13:50:36;;;;;;;;;;;16.20;99.90;;;;;;5047416;28;19920;-65
2023/04/21 13:53:01;;;;;;;;;;;16.60;99.90;;;;;;5048240;28;19944;-65
2023/04/21 13:55:27;;;;;;;;;;;17.00;99.90;;;;;;5047106;28;19919;-65
2023/04/21 13:57:53;;;;;;;;;;;17.80;96.20;;;;;;5048642;28;19913;-65
2023/04/21 14:00:18;;;;;;;;;;;17.70;92.40;;;;;;5047995;28;20371;-65
2023/04/21 14:02:44;;;;;;;;;;;18.20;95.40;;;;;;5042277;28;19919;-64
2023/04/21 14:05:10;;;;;;;;;;;18.90;88.30;;;;;;5038476;28;20353;-65
2023/04/21 14:07:36;;;;;;;;;;;19.20;85.50;;;;;;5041936;28;19929;-64
2023/04/21 14:10:03;;;;;;;;;;;19.10;82.10;;;;;;5044627;28;19928;-65
2023/04/21 14:12:28;;;;;;;;;;;18.90;85.40;;;;;;5046116;28;19923;-64
2023/04/21 14:14:54;;;;;;;;;;;19.50;82.80;;;;;;5046217;28;19913;-67
2023/04/21 14:17:21;;;;;;;;;;;20.10;76.20;;;;;;5048965;28;19913;-66
2023/04/21 14:19:47;;;;;;;;;;;19.60;74.30;;;;;;5046997;28;19920;-65
2023/04/21 14:22:13;;;;;;;;;;;19.10;76.80;;;;;;5045204;28;19913;-65